Time;durP1;ratioP1;P1;durP2;ratioP2;P2;SDS_P1;SDS_P2;PMS_P1;PMS_P2;Temp;Humidity;BMP_temperature;BMP_pressure;BME280_temperature;BME280_humidity;BME280_pressure;Samples;Min_cycle;Max_cycle;Signal;HPM_P1;HPM_P2
2022/12/27 00:00:45;;;;;;;52.38;31.13;;;;;;;5.82;67.99;95386.13;4160876;28;20053;-75
2022/12/27 00:02:47;;;;;;;54.55;33.00;;;;;;;5.80;67.66;95381.03;4167956;28;20060;-75
2022/12/27 00:04:49;;;;;;;56.33;34.00;;;;;;;5.82;67.55;95383.50;4170036;28;20091;-77
2022/12/27 00:06:50;;;;;;;54.10;33.33;;;;;;;5.76;67.92;95384.78;4173154;28;20119;-76
2022/12/27 00:08:53;;;;;;;53.08;32.72;;;;;;;5.80;67.75;95388.00;4162434;28;20457;-77
2022/12/27 00:10:55;;;;;;;55.78;31.95;;;;;;;5.85;67.46;95385.88;4175306;28;20484;-70
2022/12/27 00:12:56;;;;;;;52.25;30.42;;;;;;;5.88;67.27;95386.50;4175417;28;20060;-74
2022/12/27 00:14:58;;;;;;;47.53;29.58;;;;;;;5.92;67.42;95381.91;4161644;28;20156;-73
2022/12/27 00:17:00;;;;;;;52.40;28.60;;;;;;;5.96;67.14;95383.38;4174867;28;20207;-76
2022/12/27 00:19:02;;;;;;;51.00;30.85;;;;;;;5.93;66.83;95373.16;4175261;28;20061;-75
2022/12/27 00:21:06;;;;;;;51.33;30.17;;;;;;;5.95;67.15;95377.31;4175927;28;20075;-73
2022/12/27 00:23:07;;;;;;;50.85;28.95;;;;;;;5.98;67.32;95368.47;4156365;28;20084;-76
2022/12/27 00:25:10;;;;;;;45.35;28.50;;;;;;;6.00;67.09;95365.75;4174767;28;20064;-74
2022/12/27 00:27:11;;;;;;;52.75;30.15;;;;;;;5.96;66.89;95372.97;4175710;28;20061;-74
2022/12/27 00:29:13;;;;;;;54.42;30.42;;;;;;;5.97;67.10;95368.59;4163504;28;20073;-75
2022/12/27 00:31:16;;;;;;;47.40;29.77;;;;;;;5.90;66.87;95374.22;4160339;28;20068;-75
2022/12/27 00:33:17;;;;;;;52.58;30.20;;;;;;;5.89;67.46;95367.38;4170008;28;20085;-73
2022/12/27 00:35:19;;;;;;;54.10;30.42;;;;;;;5.89;67.38;95369.97;4168045;28;20465;-75
2022/12/27 00:37:21;;;;;;;47.88;30.15;;;;;;;5.71;67.09;95369.53;4175154;28;20056;-74
2022/12/27 00:39:23;;;;;;;50.55;29.67;;;;;;;5.52;67.87;95362.25;4174185;28;20536;-73
2022/12/27 00:41:25;;;;;;;50.75;29.52;;;;;;;5.46;68.42;95391.31;4174091;28;20067;-74
2022/12/27 00:43:27;;;;;;;61.10;34.80;;;;;;;5.05;69.31;95395.06;4170644;28;20083;-77
2022/12/27 00:45:29;;;;;;;49.83;31.48;;;;;;;4.70;70.84;95407.91;4169715;28;20095;-73
2022/12/27 00:47:31;;;;;;;56.05;32.15;;;;;;;4.48;71.80;95404.19;4174211;28;20053;-73
2022/12/27 00:49:32;;;;;;;54.42;34.35;;;;;;;4.43;72.55;95405.44;4175006;28;20069;-74
2022/12/27 00:51:34;;;;;;;62.08;37.67;;;;;;;4.37;72.75;95400.69;4174930;28;20140;-74
2022/12/27 00:53:36;;;;;;;76.05;43.55;;;;;;;4.29;72.30;95404.59;4173736;28;20057;-75
2022/12/27 00:55:38;;;;;;;65.00;39.20;;;;;;;4.39;73.01;95410.03;4174438;28;20416;-74
2022/12/27 00:57:39;;;;;;;60.13;35.70;;;;;;;4.64;72.52;95410.94;4174518;28;20056;-76
2022/12/27 00:59:41;;;;;;;63.47;40.10;;;;;;;4.82;71.69;95419.19;4174441;28;20492;-74
2022/12/27 01:01:43;;;;;;;75.38;43.83;;;;;;;4.89;70.75;95399.69;4174353;28;20122;-76
2022/12/27 01:03:45;;;;;;;85.85;50.25;;;;;;;4.98;70.20;95395.63;4174593;28;20066;-74
2022/12/27 01:05:47;;;;;;;79.90;48.72;;;;;;;5.06;70.02;95412.31;4171152;28;20160;-73
2022/12/27 01:07:49;;;;;;;81.88;46.13;;;;;;;5.13;69.83;95410.13;4171631;28;20057;-75
2022/12/27 01:09:51;;;;;;;90.07;50.55;;;;;;;5.02;69.31;95404.84;4165141;28;20068;-74
2022/12/27 01:11:53;;;;;;;91.55;52.70;;;;;;;4.99;70.64;95403.31;4179238;28;20049;-74
2022/12/27 01:13:59;;;;;;;88.35;51.65;;;;;;;4.99;69.82;95398.13;4173528;28;20052;-73
2022/12/27 01:16:01;;;;;;;76.15;46.92;;;;;;;5.11;69.84;95392.03;4145372;28;20625;-74
2022/12/27 01:18:03;;;;;;;78.20;46.58;;;;;;;4.99;69.53;95395.53;4156852;28;20533;-75
2022/12/27 01:20:05;;;;;;;90.82;52.63;;;;;;;5.01;69.85;95400.59;4167043;28;20052;-73
2022/12/27 01:22:07;;;;;;;79.65;48.38;;;;;;;5.06;70.43;95393.31;4168888;28;20072;-73
2022/12/27 01:24:08;;;;;;;81.68;49.10;;;;;;;5.11;69.53;95397.22;4163380;28;20061;-75
2022/12/27 01:26:12;;;;;;;84.75;47.75;;;;;;;5.08;69.58;95387.06;4166547;28;20057;-74
2022/12/27 01:28:14;;;;;;;78.07;45.42;;;;;;;5.09;69.13;95393.09;4171411;28;20068;-75
2022/12/27 01:30:16;;;;;;;74.38;43.83;;;;;;;5.12;69.08;95388.50;4162659;28;20065;-73
2022/12/27 01:32:18;;;;;;;78.80;45.42;;;;;;;5.11;69.60;95380.81;4172507;28;20480;-74
2022/12/27 01:34:19;;;;;;;66.95;41.47;;;;;;;5.13;69.16;95386.75;4166756;28;20558;-74
2022/12/27 01:36:22;;;;;;;70.30;38.17;;;;;;;5.15;69.16;95376.25;4171450;28;20065;-74
2022/12/27 01:38:24;;;;;;;57.70;36.80;;;;;;;5.04;69.07;95371.81;4168099;28;20056;-75
2022/12/27 01:40:26;;;;;;;59.88;34.85;;;;;;;5.07;69.41;95382.78;4166519;28;20439;-75
2022/12/27 01:44:56;;;;;;;58.88;37.20;;;;;;;5.12;68.73;95387.69;4174400;28;20500;-73
2022/12/27 01:46:59;;;;;;;57.22;36.17;;;;;;;5.18;68.46;95389.00;4173642;28;20057;-73
2022/12/27 01:49:01;;;;;;;60.53;37.28;;;;;;;5.16;68.68;95383.91;4166980;28;20053;-74
2022/12/27 01:51:06;;;;;;;71.35;39.28;;;;;;;5.23;68.39;95381.72;4170765;28;20048;-74
2022/12/27 01:53:20;;;;;;;70.93;40.40;;;;;;;5.23;68.30;95381.72;4171516;28;20056;-74
2022/12/27 01:55:35;;;;;;;74.75;40.42;;;;;;;5.11;69.10;95381.66;4154659;28;20519;-74
2022/12/27 01:57:37;;;;;;;67.25;40.67;;;;;;;5.05;68.76;95376.88;4169012;28;20053;-73
2022/12/27 01:59:39;;;;;;;63.97;38.60;;;;;;;5.10;69.16;95377.41;4177689;28;20057;-74
2022/12/27 02:01:43;;;;;;;71.50;39.60;;;;;;;5.19;68.84;95383.72;4146026;28;20084;-73
2022/12/27 02:03:51;;;;;;;60.40;36.63;;;;;;;5.25;69.00;95365.09;4162179;28;20056;-71
2022/12/27 02:05:57;;;;;;;63.38;36.00;;;;;;;5.30;68.38;95375.97;4171247;28;20079;-73
2022/12/27 02:08:20;;;;;;;61.47;36.58;;;;;;;5.36;67.90;95371.28;4170039;28;20694;-76
2022/12/27 02:10:22;;;;;;;61.05;36.92;;;;;;;5.36;67.82;95374.72;4171273;28;20224;-73
2022/12/27 02:12:25;;;;;;;63.95;36.60;;;;;;;5.33;67.92;95367.97;4171424;28;20056;-74
2022/12/27 02:14:34;;;;;;;61.55;32.97;;;;;;;5.30;67.92;95373.38;4169609;28;20198;-74
2022/12/27 02:16:35;;;;;;;50.30;32.53;;;;;;;5.29;68.22;95374.31;4174698;28;20457;-73
2022/12/27 02:18:37;;;;;;;52.80;32.00;;;;;;;5.25;68.11;95367.69;4177183;28;20689;-73
2022/12/27 02:20:51;;;;;;;51.33;30.33;;;;;;;5.29;68.10;95368.28;4158246;28;20464;-74
2022/12/27 02:25:33;;;;;;;49.40;28.88;;;;;;;5.43;68.10;95375.91;4175894;28;20052;-75
2022/12/27 02:27:47;;;;;;;56.35;33.38;;;;;;;5.39;67.06;95377.06;4172131;28;20091;-74
2022/12/27 02:30:03;;;;;;;63.33;34.80;;;;;;;5.34;67.45;95379.19;4170990;28;20597;-74
2022/12/27 02:32:15;;;;;;;41.88;25.58;;;;;;;5.34;67.46;95377.41;4171500;28;20122;-73
2022/12/27 02:34:51;;;;;;;43.45;25.85;;;;;;;5.33;67.75;95386.16;4169209;28;20053;-72
2022/12/27 02:36:57;;;;;;;45.28;28.48;;;;;;;5.31;67.90;95382.84;4157117;28;20088;-76
2022/12/27 02:39:00;;;;;;;42.10;24.95;;;;;;;5.29;67.69;95376.94;4161465;28;20059;-76
2022/12/27 02:53:31;;;;;;;38.58;21.35;;;;;;;5.30;68.00;95365.56;4166595;28;20049;-74
2022/12/27 02:58:46;;;;;;;36.35;22.58;;;;;;;5.27;67.37;95373.59;4175056;28;20535;-74
2022/12/27 03:03:37;;;;;;;40.05;22.83;;;;;;;5.20;68.05;95374.97;4174801;28;20455;-73
2022/12/27 03:08:29;;;;;;;37.63;23.55;;;;;;;5.22;68.01;95373.09;4167381;28;20538;-74
2022/12/27 03:15:56;;;;;;;43.03;27.27;;;;;;;4.90;68.59;95378.81;4176061;28;20132;-73
2022/12/27 03:18:07;;;;;;;48.00;27.70;;;;;;;4.86;69.23;95390.34;4174553;28;20082;-72
2022/12/27 03:27:27;;;;;;;50.63;32.17;;;;;;;4.67;69.48;95388.19;4144275;28;20515;-73
2022/12/27 03:34:30;;;;;;;45.78;30.65;;;;;;;4.90;69.07;95389.22;4140568;28;20350;-74
2022/12/27 03:39:04;;;;;;;46.90;29.30;;;;;;;4.98;68.73;95388.66;4156194;28;20096;-73
2022/12/27 03:43:27;;;;;;;41.40;26.77;;;;;;;4.95;68.95;95390.63;4155900;28;20315;-73
2022/12/27 03:48:22;;;;;;;39.75;26.80;;;;;;;4.93;68.82;95382.97;4140120;28;20559;-73
2022/12/27 03:50:35;;;;;;;40.30;25.98;;;;;;;4.91;68.96;95393.44;4142139;28;20465;-75
2022/12/27 03:52:58;;;;;;;35.50;22.92;;;;;;;4.97;68.76;95380.97;4148956;28;20131;-75
2022/12/27 03:55:00;;;;;;;38.38;23.33;;;;;;;5.03;68.77;95380.53;4140175;28;20108;-73
2022/12/27 03:57:05;;;;;;;39.13;23.23;;;;;;;5.09;68.17;95377.50;4141372;28;20098;-73
2022/12/27 03:59:09;;;;;;;36.33;22.85;;;;;;;5.13;67.96;95371.16;4150564;28;20102;-74
2022/12/27 04:01:11;;;;;;;37.53;21.92;;;;;;;5.16;68.17;95378.72;4137448;28;20089;-73
2022/12/27 04:03:13;;;;;;;34.67;21.73;;;;;;;5.24;68.54;95375.59;4146030;28;20049;-73
2022/12/27 04:05:14;;;;;;;36.75;23.33;;;;;;;5.25;67.79;95377.25;4159093;28;20096;-74
2022/12/27 04:07:16;;;;;;;33.65;22.27;;;;;;;5.27;67.37;95390.94;4148609;28;20085;-73
2022/12/27 04:35:03;;;;;;;36.28;22.23;;;;;;;4.85;68.16;95406.84;4175119;28;20106;-73
2022/12/27 04:37:05;;;;;;;34.63;23.63;;;;;;;4.86;68.53;95408.53;4174556;28;20115;-75
2022/12/27 04:39:07;;;;;;;38.10;24.23;;;;;;;4.83;68.06;95406.13;4170336;28;20181;-75
2022/12/27 04:55:23;;;;;;;40.70;26.92;;;;;;;4.43;69.78;95436.56;4156405;28;20054;-73
2022/12/27 04:57:25;;;;;;;43.42;28.08;;;;;;;4.46;69.85;95434.59;4166574;28;20550;-73
2022/12/27 05:02:03;;;;;;;45.17;27.17;;;;;;;4.62;69.60;95436.16;4174181;28;20107;-74
2022/12/27 05:04:05;;;;;;;40.40;26.48;;;;;;;4.67;69.33;95436.69;4173002;28;20107;-74
2022/12/27 05:06:07;;;;;;;46.63;27.80;;;;;;;4.71;69.28;95431.19;4174829;28;20067;-74
2022/12/27 05:15:10;;;;;;;35.15;22.88;;;;;;;4.78;68.95;95417.78;4171345;28;20140;-74
2022/12/27 05:17:12;;;;;;;36.75;23.20;;;;;;;4.79;68.69;95416.84;4173281;28;20072;-74
2022/12/27 05:19:14;;;;;;;37.63;21.88;;;;;;;4.79;68.55;95401.25;4173990;28;20830;-74
2022/12/27 05:21:16;;;;;;;34.05;19.85;;;;;;;4.78;68.88;95389.22;4174784;28;20053;-74
2022/12/27 05:25:42;;;;;;;32.42;19.02;;;;;;;4.84;69.38;95394.81;4161910;28;20075;-74
2022/12/27 05:27:44;;;;;;;35.60;22.80;;;;;;;4.82;68.75;95403.63;4175343;28;20079;-75
2022/12/27 05:29:46;;;;;;;36.85;23.05;;;;;;;4.76;68.37;95398.88;4172832;28;20468;-75
2022/12/27 05:31:48;;;;;;;38.92;21.02;;;;;;;4.70;68.73;95387.16;4170227;28;20396;-74
2022/12/27 05:33:51;;;;;;;32.60;20.25;;;;;;;4.73;69.38;95376.53;4176914;28;20084;-74
2022/12/27 05:35:52;;;;;;;34.67;21.80;;;;;;;4.78;68.98;95377.06;4177845;28;20083;-75
2022/12/27 05:37:54;;;;;;;35.38;21.90;;;;;;;4.76;69.06;95371.16;4177512;28;20128;-75
2022/12/27 05:39:56;;;;;;;34.50;22.45;;;;;;;4.82;68.76;95367.28;4177577;28;20060;-75
2022/12/27 05:41:58;;;;;;;33.70;20.23;;;;;;;4.82;68.82;95365.53;4166652;28;20079;-73
2022/12/27 05:43:59;;;;;;;27.58;19.75;;;;;;;4.74;68.35;95378.22;4175802;28;20126;-74
2022/12/27 05:46:16;;;;;;;31.45;20.38;;;;;;;4.53;69.29;95390.09;4177299;28;20063;-75
2022/12/27 05:48:18;;;;;;;30.77;21.10;;;;;;;4.34;70.02;95396.50;4177566;28;20078;-74
2022/12/27 05:50:20;;;;;;;32.13;21.27;;;;;;;3.95;70.70;95397.44;4178056;28;20476;-76
2022/12/27 05:52:22;;;;;;;37.28;23.35;;;;;;;3.59;72.73;95398.91;4176986;28;20071;-74
2022/12/27 05:54:24;;;;;;;38.47;24.30;;;;;;;3.48;73.63;95409.94;4177347;28;20551;-74
2022/12/27 05:56:26;;;;;;;46.88;29.38;;;;;;;3.48;74.34;95409.94;4176511;28;20073;-77
2022/12/27 05:58:28;;;;;;;49.53;32.83;;;;;;;3.38;73.63;95414.91;4156372;28;20140;-73
2022/12/27 06:00:30;;;;;;;49.80;33.65;;;;;;;3.22;74.26;95425.38;4166447;28;20144;-74
2022/12/27 06:02:31;;;;;;;64.72;43.50;;;;;;;3.26;74.50;95424.25;4168300;28;20475;-73
2022/12/27 06:04:33;;;;;;;111.90;66.40;;;;;;;3.07;73.43;95429.75;4161418;28;20053;-74
2022/12/27 06:06:35;;;;;;;104.03;64.00;;;;;;;2.63;74.71;95435.09;4160689;28;20563;-73
2022/12/27 06:08:37;;;;;;;94.55;58.75;;;;;;;2.76;75.53;95441.19;4160488;28;20050;-74
2022/12/27 06:10:39;;;;;;;97.88;57.15;;;;;;;3.04;75.17;95440.31;4149407;28;20058;-75
2022/12/27 06:12:40;;;;;;;79.60;51.65;;;;;;;3.27;74.41;95430.31;4173216;28;20060;-72
2022/12/27 06:14:42;;;;;;;84.95;52.22;;;;;;;3.57;73.73;95426.66;4177191;28;20055;-74
2022/12/27 06:16:44;;;;;;;85.82;54.25;;;;;;;3.79;72.87;95426.13;4176791;28;20179;-75
2022/12/27 06:18:46;;;;;;;84.93;52.85;;;;;;;3.97;71.83;95431.84;4177066;28;20136;-74
2022/12/27 06:20:47;;;;;;;83.28;52.78;;;;;;;4.06;71.15;95436.44;4177340;28;20161;-73
2022/12/27 06:22:49;;;;;;;87.80;52.92;;;;;;;4.10;70.29;95430.94;4176918;28;20053;-76
2022/12/27 06:24:51;;;;;;;74.72;49.72;;;;;;;4.20;70.55;95432.94;4174160;28;20104;-75
2022/12/27 06:26:52;;;;;;;79.32;50.20;;;;;;;4.06;69.84;95432.06;4174256;28;20084;-76
2022/12/27 06:28:56;;;;;;;85.43;51.53;;;;;;;4.13;71.22;95431.66;4173374;28;20053;-76
2022/12/27 06:30:59;;;;;;;79.88;49.38;;;;;;;4.05;70.68;95425.25;4172499;28;20080;-74
2022/12/27 06:33:01;;;;;;;76.47;47.08;;;;;;;4.05;70.30;95433.03;4174124;28;20049;-76
2022/12/27 06:35:03;;;;;;;69.05;41.80;;;;;;;4.28;69.71;95428.91;4174365;28;20052;-72
2022/12/27 06:37:04;;;;;;;63.58;41.50;;;;;;;4.71;68.92;95431.19;4174380;28;20522;-74
2022/12/27 06:39:06;;;;;;;140.80;79.85;;;;;;;5.34;67.35;95431.97;4172070;28;20512;-74
2022/12/27 06:41:11;;;;;;;80.03;46.38;;;;;;;5.91;65.47;95420.06;4159077;28;20465;-78
2022/12/27 06:43:13;;;;;;;68.40;39.22;;;;;;;6.35;63.38;95438.56;4155310;28;20061;-72
2022/12/27 06:45:15;;;;;;;57.28;35.58;;;;;;;6.42;62.27;95431.13;4169848;28;20135;-74
2022/12/27 06:47:16;;;;;;;63.42;36.95;;;;;;;6.36;62.27;95433.22;4172099;28;20437;-76
2022/12/27 06:49:18;;;;;;;63.90;36.25;;;;;;;6.28;63.32;95427.78;4177055;28;20060;-75
2022/12/27 06:51:20;;;;;;;60.47;35.70;;;;;;;6.23;63.31;95426.47;4172839;28;20415;-73
2022/12/27 06:53:22;;;;;;;47.92;28.75;;;;;;;6.20;63.59;95424.94;4176315;28;20052;-74
2022/12/27 06:55:24;;;;;;;48.80;28.10;;;;;;;6.10;63.80;95419.56;4172146;28;20459;-73
2022/12/27 06:57:26;;;;;;;44.30;29.45;;;;;;;6.05;64.59;95424.28;4172770;28;20132;-73
2022/12/27 06:59:28;;;;;;;51.65;30.17;;;;;;;5.99;64.74;95424.75;4171397;28;20057;-74
2022/12/27 07:01:29;;;;;;;47.38;29.83;;;;;;;5.90;64.77;95428.00;4173722;28;20056;-75
2022/12/27 07:03:31;;;;;;;42.53;27.95;;;;;;;5.84;64.93;95424.06;4172394;28;20048;-74
2022/12/27 07:05:35;;;;;;;52.00;31.08;;;;;;;5.75;64.88;95420.38;4165487;28;20057;-74
2022/12/27 07:07:36;;;;;;;49.70;29.55;;;;;;;5.60;65.56;95420.66;4172794;28;20080;-75
2022/12/27 07:09:38;;;;;;;51.45;28.02;;;;;;;5.37;66.71;95422.31;4174536;28;20060;-74
2022/12/27 07:11:40;;;;;;;47.67;29.52;;;;;;;5.32;67.20;95426.06;4174566;28;20518;-73
2022/12/27 07:13:44;;;;;;;47.08;29.48;;;;;;;5.34;67.60;95418.16;4154716;28;20053;-75
2022/12/27 07:15:46;;;;;;;48.28;29.58;;;;;;;5.42;66.95;95415.84;4169421;28;20221;-74
2022/12/27 07:17:48;;;;;;;48.35;30.00;;;;;;;5.49;67.06;95416.22;4176697;28;20064;-74
2022/12/27 07:19:49;;;;;;;50.70;30.85;;;;;;;5.52;66.96;95418.59;4181466;28;20049;-74
2022/12/27 07:21:51;;;;;;;47.28;32.17;;;;;;;5.60;67.14;95420.66;4173263;28;20179;-73
2022/12/27 07:23:53;;;;;;;57.50;31.67;;;;;;;5.67;66.71;95408.88;4172770;28;20053;-74
2022/12/27 07:26:01;;;;;;;131.43;70.03;;;;;;;5.81;67.63;95400.03;4172522;28;20048;-75
2022/12/27 07:28:03;;;;;;;57.72;35.05;;;;;;;5.89;67.52;95413.31;4176352;28;20472;-74
2022/12/27 07:30:05;;;;;;;57.92;36.00;;;;;;;5.86;66.80;95413.56;4173253;28;20471;-76
2022/12/27 07:32:07;;;;;;;61.70;35.72;;;;;;;5.83;66.46;95413.75;4175498;28;20093;-75
2022/12/27 07:34:09;;;;;;;57.53;37.53;;;;;;;5.41;67.35;95421.16;4172558;28;20444;-76
2022/12/27 07:36:17;;;;;;;65.00;39.63;;;;;;;5.52;67.77;95416.00;4177286;28;20045;-77
2022/12/27 07:38:18;;;;;;;74.28;46.08;;;;;;;5.52;66.76;95421.19;4169634;28;20483;-74
2022/12/27 07:40:20;;;;;;;80.70;47.47;;;;;;;5.53;67.14;95412.47;4171359;28;20088;-74
2022/12/27 07:42:22;;;;;;;73.45;44.80;;;;;;;5.52;66.96;95426.41;4171852;28;20140;-75
2022/12/27 07:44:23;;;;;;;72.25;43.63;;;;;;;5.46;66.60;95411.25;4174423;28;20065;-75
2022/12/27 07:46:25;;;;;;;71.78;43.25;;;;;;;5.47;67.27;95405.13;4175723;28;20064;-74
2022/12/27 07:48:27;;;;;;;67.05;42.10;;;;;;;5.61;67.55;95406.72;4175259;28;20400;-73
2022/12/27 07:50:29;;;;;;;91.82;54.05;;;;;;;5.81;66.72;95406.09;4174536;28;20060;-74
2022/12/27 07:52:30;;;;;;;70.30;42.63;;;;;;;6.01;66.21;95403.81;4174989;28;20538;-74
2022/12/27 07:54:32;;;;;;;69.50;43.28;;;;;;;6.17;65.55;95411.31;4167753;28;20053;-75
2022/12/27 07:56:34;;;;;;;62.90;40.92;;;;;;;6.08;65.07;95405.84;4160082;28;20741;-74
2022/12/27 07:58:41;;;;;;;71.82;42.28;;;;;;;6.17;65.33;95406.94;4156162;28;20049;-75
2022/12/27 08:00:45;;;;;;;65.53;38.97;;;;;;;6.24;65.45;95410.75;4164824;28;20053;-77
2022/12/27 08:02:46;;;;;;;63.35;40.92;;;;;;;6.26;64.45;95415.81;4166438;28;20519;-73
2022/12/27 08:04:48;;;;;;;72.28;45.58;;;;;;;6.15;65.03;95414.88;4173361;28;20099;-74
2022/12/27 08:06:50;;;;;;;85.97;53.55;;;;;;;5.72;66.16;95415.41;4175130;28;20401;-74
2022/12/27 08:08:52;;;;;;;88.22;53.92;;;;;;;5.67;66.80;95430.47;4164402;28;20057;-76
2022/12/27 08:10:54;;;;;;;90.68;55.00;;;;;;;5.67;66.88;95433.09;4171947;28;20053;-75
2022/12/27 08:13:02;;;;;;;97.50;56.25;;;;;;;5.78;67.31;95431.47;4167742;28;20084;-74
2022/12/27 08:15:04;;;;;;;87.68;53.72;;;;;;;5.97;65.96;95424.03;4168669;28;20062;-76
2022/12/27 08:17:13;;;;;;;89.30;55.90;;;;;;;6.24;65.77;95428.09;4167487;28;20057;-72
2022/12/27 08:19:15;;;;;;;95.00;54.97;;;;;;;6.47;65.01;95439.41;4159005;28;20153;-75
2022/12/27 08:21:17;;;;;;;84.60;51.97;;;;;;;6.70;64.47;95438.50;4160129;28;20088;-74
2022/12/27 08:23:18;;;;;;;84.25;53.80;;;;;;;6.92;65.67;95439.44;4166990;28;20063;-75
2022/12/27 08:25:20;;;;;;;95.95;54.40;;;;;;;7.10;63.66;95434.59;4164505;28;20054;-74
2022/12/27 08:27:23;;;;;;;87.88;53.28;;;;;;;7.19;63.04;95433.88;4172799;28;20087;-74
2022/12/27 08:29:25;;;;;;;89.70;54.90;;;;;;;7.32;62.87;95428.53;4164407;28;20103;-75
2022/12/27 08:31:26;;;;;;;85.28;52.38;;;;;;;7.35;62.00;95429.09;4175009;28;20052;-76
2022/12/27 08:33:28;;;;;;;92.45;55.55;;;;;;;7.36;61.29;95429.94;4174597;28;20053;-74
2022/12/27 08:35:30;;;;;;;85.22;51.92;;;;;;;7.49;63.50;95427.19;4174531;28;20076;-74
2022/12/27 08:37:52;;;;;;;82.25;52.38;;;;;;;7.64;62.85;95427.75;4174045;28;20303;-76
2022/12/27 08:39:53;;;;;;;88.30;52.17;;;;;;;7.77;61.99;95431.84;4175203;28;20057;-74
2022/12/27 08:42:03;;;;;;;101.07;58.22;;;;;;;7.89;61.17;95414.34;4173497;28;20230;-74
2022/12/27 08:44:05;;;;;;;89.10;51.30;;;;;;;7.98;61.43;95408.41;4157024;28;20061;-74
2022/12/27 08:46:08;;;;;;;68.72;43.25;;;;;;;8.11;61.41;95402.16;4174286;28;20093;-74
2022/12/27 08:48:10;;;;;;;69.72;44.28;;;;;;;8.20;61.69;95412.69;4174801;28;20049;-74
2022/12/27 08:50:12;;;;;;;61.63;40.67;;;;;;;8.36;61.43;95406.19;4174735;28;20433;-76
2022/12/27 08:52:13;;;;;;;66.82;41.13;;;;;;;8.51;60.02;95419.78;4174381;28;20107;-75
2022/12/27 08:54:15;;;;;;;62.75;39.92;;;;;;;8.54;59.37;95420.34;4174947;28;20084;-77
2022/12/27 08:56:17;;;;;;;70.20;41.53;;;;;;;8.52;59.66;95405.78;4175011;28;20057;-75
2022/12/27 08:58:19;;;;;;;60.55;39.50;;;;;;;8.54;59.37;95404.69;4173865;28;20056;-73
2022/12/27 09:00:20;;;;;;;62.85;39.78;;;;;;;8.64;59.23;95398.66;4174455;28;20061;-75
2022/12/27 09:02:22;;;;;;;60.05;37.20;;;;;;;8.74;58.94;95402.97;4173579;28;20057;-74
2022/12/27 09:04:24;;;;;;;61.53;36.70;;;;;;;8.94;59.09;95396.03;4178640;28;20053;-75
2022/12/27 09:06:26;;;;;;;59.22;37.30;;;;;;;9.06;58.84;95388.94;4177945;28;20442;-76
2022/12/27 09:08:28;;;;;;;62.90;38.80;;;;;;;9.04;57.63;95403.13;4177850;28;20342;-75
2022/12/27 09:10:29;;;;;;;54.58;36.50;;;;;;;9.11;58.90;95399.00;4176839;28;20084;-75
2022/12/27 09:12:32;;;;;;;53.45;34.45;;;;;;;8.99;58.63;95393.88;4178419;28;20475;-73
2022/12/27 09:14:33;;;;;;;51.20;35.83;;;;;;;9.04;58.53;95387.44;4173117;28;20454;-74
2022/12/27 09:16:35;;;;;;;49.33;33.03;;;;;;;9.10;58.24;95389.50;4176599;28;20239;-74
2022/12/27 09:18:38;;;;;;;48.25;29.88;;;;;;;9.21;58.44;95385.00;4177570;28;20057;-74
2022/12/27 09:20:39;;;;;;;71.85;42.35;;;;;;;9.37;57.76;95374.00;4178362;28;20136;-76
2022/12/27 09:22:41;;;;;;;59.28;37.75;;;;;;;9.50;57.91;95370.31;4175985;28;20061;-77
2022/12/27 09:24:43;;;;;;;47.80;28.02;;;;;;;9.36;57.61;95361.91;4178053;28;20404;-74
2022/12/27 09:26:45;;;;;;;48.58;27.30;;;;;;;9.43;58.06;95364.81;4176189;28;20049;-75
2022/12/27 09:28:47;;;;;;;42.28;26.58;;;;;;;9.64;57.40;95362.91;4178136;28;20480;-74
2022/12/27 09:30:49;;;;;;;51.95;27.33;;;;;;;9.79;56.88;95354.66;4175161;28;20053;-75
2022/12/27 09:32:51;;;;;;;41.35;25.83;;;;;;;9.92;56.32;95354.38;4177435;28;20056;-74
2022/12/27 09:34:55;;;;;;;40.97;25.20;;;;;;;10.05;56.18;95349.69;4176554;28;20550;-74
2022/12/27 09:36:57;;;;;;;34.63;22.63;;;;;;;9.98;56.19;95353.81;4176370;28;20060;-74
2022/12/27 09:38:59;;;;;;;34.85;22.35;;;;;;;10.03;56.39;95356.84;4175227;28;20358;-75
2022/12/27 09:41:04;;;;;;;31.65;19.02;;;;;;;10.10;56.02;95355.31;4176470;28;20056;-75
2022/12/27 09:43:10;;;;;;;29.30;18.90;;;;;;;10.21;55.62;95347.28;4159266;28;20057;-75
2022/12/27 09:45:35;;;;;;;30.73;21.30;;;;;;;9.91;56.03;95350.91;4161728;28;20168;-76
2022/12/27 09:47:55;;;;;;;34.67;20.95;;;;;;;10.07;56.72;95352.13;4160895;28;20056;-77
2022/12/27 09:50:03;;;;;;;36.35;20.90;;;;;;;10.29;56.44;95349.25;4153596;28;20487;-75
2022/12/27 09:52:33;;;;;;;43.60;21.40;;;;;;;10.10;56.03;95344.03;4142120;28;20112;-74
2022/12/27 09:55:00;;;;;;;33.35;20.77;;;;;;;10.40;56.03;95337.78;4144089;28;20595;-73
2022/12/27 09:57:15;;;;;;;30.35;19.95;;;;;;;10.20;55.50;95347.44;4159310;28;20057;-75
2022/12/27 09:59:26;;;;;;;31.48;20.52;;;;;;;10.32;56.10;95346.34;4177253;28;20049;-75
2022/12/27 10:01:32;;;;;;;33.72;21.25;;;;;;;10.36;55.17;95352.13;4159214;28;20058;-76
2022/12/27 10:03:34;;;;;;;35.13;21.77;;;;;;;10.21;55.56;95347.28;4157739;28;20559;-73
2022/12/27 10:05:36;;;;;;;33.78;22.88;;;;;;;10.07;55.71;95333.81;4158776;28;20108;-72
2022/12/27 10:08:09;;;;;;;33.60;23.58;;;;;;;10.07;56.43;95336.44;4175726;28;20061;-74
2022/12/27 10:10:33;;;;;;;38.85;27.23;;;;;;;10.32;55.56;95327.19;4173925;28;20053;-75
2022/12/27 10:13:09;;;;;;;42.10;26.42;;;;;;;10.58;55.38;95315.13;4175458;28;20057;-75
2022/12/27 10:15:16;;;;;;;37.75;25.75;;;;;;;10.85;54.86;95314.28;4167726;28;20053;-74
2022/12/27 10:17:27;;;;;;;39.22;26.08;;;;;;;11.03;54.16;95297.78;4175591;28;20103;-74
2022/12/27 10:19:43;;;;;;;42.42;26.52;;;;;;;10.82;53.59;95300.69;4164735;28;20081;-74
2022/12/27 10:22:08;;;;;;;39.53;24.67;;;;;;;10.88;53.67;95297.44;4179131;28;20060;-73
2022/12/27 10:24:21;;;;;;;38.30;24.58;;;;;;;10.97;54.36;95308.84;4172379;28;20053;-73
2022/12/27 10:26:23;;;;;;;37.75;24.00;;;;;;;10.98;53.99;95297.41;4165689;28;20053;-76
2022/12/27 10:28:45;;;;;;;36.72;22.35;;;;;;;10.71;54.57;95299.06;4168894;28;20538;-75
2022/12/27 10:30:47;;;;;;;50.40;25.98;;;;;;;10.53;54.80;95298.16;4163306;28;20516;-72
2022/12/27 10:32:49;;;;;;;42.28;24.92;;;;;;;10.35;55.13;95293.69;4174265;28;20101;-77
2022/12/27 10:35:00;;;;;;;38.80;24.95;;;;;;;10.48;55.42;95296.00;4168559;28;20065;-76
2022/12/27 10:37:01;;;;;;;45.90;28.38;;;;;;;10.64;54.88;95306.66;4145190;28;20497;-75
2022/12/27 10:39:09;;;;;;;51.58;32.53;;;;;;;10.60;54.49;95305.31;4177386;28;20503;-76
2022/12/27 10:41:32;;;;;;;55.00;32.92;;;;;;;10.66;54.64;95304.72;4151800;28;20057;-76
2022/12/27 10:43:41;;;;;;;50.60;34.67;;;;;;;10.55;54.67;95304.91;4169917;28;20099;-75
2022/12/27 10:45:43;;;;;;;52.97;36.30;;;;;;;10.32;56.26;95314.09;4163787;28;20099;-75
2022/12/27 10:47:45;;;;;;;55.63;37.70;;;;;;;10.14;56.21;95304.31;4176312;28;20045;-74
2022/12/27 10:50:03;;;;;;;57.95;37.45;;;;;;;10.24;56.97;95307.75;4168901;28;20054;-75
2022/12/27 10:52:10;;;;;;;52.42;34.08;;;;;;;10.41;56.51;95308.84;4161857;28;20139;-73
2022/12/27 10:54:14;;;;;;;55.30;33.58;;;;;;;10.55;55.68;95310.16;4143781;28;20058;-73
2022/12/27 10:56:26;;;;;;;52.05;34.08;;;;;;;10.49;55.80;95312.53;4143880;28;20121;-76
2022/12/27 10:58:38;;;;;;;55.90;33.63;;;;;;;10.52;55.13;95306.97;4175030;28;20065;-75
2022/12/27 11:00:52;;;;;;;47.25;29.48;;;;;;;10.67;55.28;95310.81;4177229;28;20284;-77
2022/12/27 11:02:55;;;;;;;40.15;25.15;;;;;;;10.86;54.77;95299.38;4174609;28;20208;-76
2022/12/27 11:04:59;;;;;;;40.67;27.33;;;;;;;11.17;54.61;95283.34;4174102;28;20135;-75
2022/12/27 11:07:03;;;;;;;45.20;30.48;;;;;;;11.42;53.87;95282.63;4161824;28;20128;-73
2022/12/27 11:09:26;;;;;;;50.97;30.63;;;;;;;11.72;53.18;95285.81;4170283;28;20057;-77
2022/12/27 11:11:28;;;;;;;44.20;29.73;;;;;;;11.90;52.96;95280.59;4174586;28;20387;-75
2022/12/27 11:13:30;;;;;;;47.53;30.38;;;;;;;12.11;52.09;95288.13;4161547;28;20505;-76
2022/12/27 11:15:34;;;;;;;45.78;30.13;;;;;;;12.26;51.78;95280.47;4162859;28;20442;-73
2022/12/27 11:17:53;;;;;;;56.45;33.83;;;;;;;11.99;52.07;95287.53;4165019;28;20060;-75
2022/12/27 11:19:56;;;;;;;53.60;35.67;;;;;;;11.81;52.72;95279.69;4160164;28;20053;-74
2022/12/27 11:22:03;;;;;;;63.08;36.08;;;;;;;11.67;53.04;95281.03;4142336;28;20473;-75